sensor_id;sensor_type;location;lat;lon;timestamp;pressure;altitude;pressure_sealevel;temperature;humidity
38452;BME280;24231;52.514;13.438;2023-03-26T00:03:02;99731.78;;;8.36;75.19
38452;BME280;24231;52.514;13.438;2023-03-26T00:05:29;99731.96;;;8.85;72.86
38452;BME280;24231;52.514;13.438;2023-03-26T00:07:57;99738.43;;;8.53;74.43
38452;BME280;24231;52.514;13.438;2023-03-26T00:10:24;99739.18;;;8.39;75.69
38452;BME280;24231;52.514;13.438;2023-03-26T00:12:51;99742.80;;;8.84;72.24
38452;BME280;24231;52.514;13.438;2023-03-26T00:15:19;99744.65;;;8.45;74.18
38452;BME280;24231;52.514;13.438;2023-03-26T00:17:46;99738.62;;;8.89;71.65
38452;BME280;24231;52.514;13.438;2023-03-26T00:20:13;99742.81;;;8.95;70.98
38452;BME280;24231;52.514;13.438;2023-03-26T00:22:41;99741.16;;;9.56;68.57
38452;BME280;24231;52.514;13.438;2023-03-26T00:25:08;99742.54;;;8.40;72.62
38452;BME280;24231;52.514;13.438;2023-03-26T00:27:35;99745.50;;;8.42;73.02
38452;BME280;24231;52.514;13.438;2023-03-26T00:30:03;99751.72;;;8.60;71.43
38452;BME280;24231;52.514;13.438;2023-03-26T00:32:31;99752.76;;;8.51;71.76
38452;BME280;24231;52.514;13.438;2023-03-26T00:34:58;99745.27;;;9.10;70.03
38452;BME280;24231;52.514;13.438;2023-03-26T00:37:25;99747.51;;;9.93;66.55
38452;BME280;24231;52.514;13.438;2023-03-26T00:39:53;99741.60;;;10.15;64.65
38452;BME280;24231;52.514;13.438;2023-03-26T00:42:20;99742.26;;;9.56;66.58
38452;BME280;24231;52.514;13.438;2023-03-26T00:44:47;99746.23;;;9.16;67.52
38452;BME280;24231;52.514;13.438;2023-03-26T00:47:15;99743.61;;;9.42;66.47
38452;BME280;24231;52.514;13.438;2023-03-26T00:49:43;99744.26;;;8.97;68.86
38452;BME280;24231;52.514;13.438;2023-03-26T00:52:10;99746.60;;;9.59;66.04
38452;BME280;24231;52.514;13.438;2023-03-26T00:54:37;99751.18;;;9.05;67.50
38452;BME280;24231;52.514;13.438;2023-03-26T00:57:08;99750.01;;;9.08;66.95
38452;BME280;24231;52.514;13.438;2023-03-26T00:59:35;99743.70;;;8.52;69.29
38452;BME280;24231;52.514;13.438;2023-03-26T01:02:02;99738.30;;;8.59;69.83
38452;BME280;24231;52.514;13.438;2023-03-26T01:04:31;99737.97;;;8.76;67.86
38452;BME280;24231;52.514;13.438;2023-03-26T01:13:40;99752.21;;;9.14;67.28
38452;BME280;24231;52.514;13.438;2023-03-26T01:16:16;99750.65;;;9.18;65.00
38452;BME280;24231;52.514;13.438;2023-03-26T01:18:44;99762.35;;;9.61;64.73
38452;BME280;24231;52.514;13.438;2023-03-26T01:21:11;99763.37;;;8.86;67.78
38452;BME280;24231;52.514;13.438;2023-03-26T01:23:44;99763.78;;;9.24;66.77
38452;BME280;24231;52.514;13.438;2023-03-26T01:26:24;99775.84;;;8.12;71.14
38452;BME280;24231;52.514;13.438;2023-03-26T01:29:00;99772.21;;;8.72;71.49
38452;BME280;24231;52.514;13.438;2023-03-26T01:31:32;99769.85;;;9.27;68.79
38452;BME280;24231;52.514;13.438;2023-03-26T01:34:07;99775.77;;;8.51;71.31
38452;BME280;24231;52.514;13.438;2023-03-26T01:36:41;99775.48;;;8.70;71.84
38452;BME280;24231;52.514;13.438;2023-03-26T01:39:17;99764.26;;;8.21;72.49
38452;BME280;24231;52.514;13.438;2023-03-26T01:41:50;99769.52;;;8.76;70.58
38452;BME280;24231;52.514;13.438;2023-03-26T01:44:26;99777.55;;;8.09;73.20
38452;BME280;24231;52.514;13.438;2023-03-26T01:46:55;99771.47;;;8.58;72.16
38452;BME280;24231;52.514;13.438;2023-03-26T01:49:27;99764.21;;;8.92;71.74
38452;BME280;24231;52.514;13.438;2023-03-26T01:51:55;99769.62;;;8.89;70.68
38452;BME280;24231;52.514;13.438;2023-03-26T01:54:26;99766.64;;;9.13;70.26
38452;BME280;24231;52.514;13.438;2023-03-26T01:57:02;99770.34;;;8.21;72.93
38452;BME280;24231;52.514;13.438;2023-03-26T01:59:48;99772.30;;;8.61;71.28
38452;BME280;24231;52.514;13.438;2023-03-26T02:02:27;99771.66;;;8.82;69.97
38452;BME280;24231;52.514;13.438;2023-03-26T02:05:10;99770.25;;;8.94;69.65
38452;BME280;24231;52.514;13.438;2023-03-26T02:07:43;99773.00;;;9.23;67.73
38452;BME280;24231;52.514;13.438;2023-03-26T02:10:15;99770.66;;;8.44;69.91
38452;BME280;24231;52.514;13.438;2023-03-26T02:12:43;99767.19;;;9.05;69.41
38452;BME280;24231;52.514;13.438;2023-03-26T02:15:14;99769.86;;;9.42;68.01
38452;BME280;24231;52.514;13.438;2023-03-26T02:17:42;99769.61;;;8.57;70.75
38452;BME280;24231;52.514;13.438;2023-03-26T02:20:11;99774.97;;;8.60;72.63
38452;BME280;24231;52.514;13.438;2023-03-26T02:22:39;99766.57;;;8.90;70.44
38452;BME280;24231;52.514;13.438;2023-03-26T02:25:08;99769.15;;;9.43;68.56
38452;BME280;24231;52.514;13.438;2023-03-26T02:27:36;99769.18;;;8.59;71.09
38452;BME280;24231;52.514;13.438;2023-03-26T02:30:06;99769.37;;;9.15;69.16
38452;BME280;24231;52.514;13.438;2023-03-26T02:32:34;99763.71;;;8.81;70.31
38452;BME280;24231;52.514;13.438;2023-03-26T02:35:01;99769.77;;;8.13;73.23
38452;BME280;24231;52.514;13.438;2023-03-26T02:37:28;99762.18;;;8.42;71.79
38452;BME280;24231;52.514;13.438;2023-03-26T02:39:55;99774.02;;;8.27;73.42
38452;BME280;24231;52.514;13.438;2023-03-26T02:42:23;99776.76;;;7.85;74.40
38452;BME280;24231;52.514;13.438;2023-03-26T02:44:50;99776.27;;;8.90;70.69
38452;BME280;24231;52.514;13.438;2023-03-26T02:47:18;99783.93;;;8.62;71.07
38452;BME280;24231;52.514;13.438;2023-03-26T02:49:45;99788.47;;;7.99;73.28
38452;BME280;24231;52.514;13.438;2023-03-26T02:52:12;99790.43;;;7.69;74.29
38452;BME280;24231;52.514;13.438;2023-03-26T02:54:40;99784.52;;;8.49;71.34
38452;BME280;24231;52.514;13.438;2023-03-26T02:57:07;99795.22;;;7.78;73.85
38452;BME280;24231;52.514;13.438;2023-03-26T02:59:34;99797.53;;;7.91;73.92
38452;BME280;24231;52.514;13.438;2023-03-26T03:02:03;99797.52;;;7.99;72.94
38452;BME280;24231;52.514;13.438;2023-03-26T03:04:30;99791.96;;;8.57;70.25
38452;BME280;24231;52.514;13.438;2023-03-26T03:06:58;99796.89;;;9.01;68.22
38452;BME280;24231;52.514;13.438;2023-03-26T03:09:25;99805.65;;;8.09;72.25
38452;BME280;24231;52.514;13.438;2023-03-26T03:11:52;99810.29;;;8.31;72.14
38452;BME280;24231;52.514;13.438;2023-03-26T03:14:19;99805.71;;;8.98;69.65
38452;BME280;24231;52.514;13.438;2023-03-26T03:16:47;99805.90;;;8.21;72.21
38452;BME280;24231;52.514;13.438;2023-03-26T03:19:14;99807.97;;;7.98;73.13
38452;BME280;24231;52.514;13.438;2023-03-26T03:21:42;99807.37;;;8.32;72.76
38452;BME280;24231;52.514;13.438;2023-03-26T03:24:09;99807.82;;;7.72;74.45
38452;BME280;24231;52.514;13.438;2023-03-26T03:26:36;99807.23;;;8.71;71.12
38452;BME280;24231;52.514;13.438;2023-03-26T03:29:04;99802.17;;;8.55;71.17
38452;BME280;24231;52.514;13.438;2023-03-26T03:31:31;99811.38;;;8.45;71.26
38452;BME280;24231;52.514;13.438;2023-03-26T03:33:58;99811.86;;;8.41;72.67
38452;BME280;24231;52.514;13.438;2023-03-26T03:36:26;99810.35;;;9.12;69.44
38452;BME280;24231;52.514;13.438;2023-03-26T03:38:53;99805.88;;;8.31;72.16
38452;BME280;24231;52.514;13.438;2023-03-26T03:41:20;99807.25;;;8.66;72.00
38452;BME280;24231;52.514;13.438;2023-03-26T03:43:48;99803.39;;;7.91;72.74
38452;BME280;24231;52.514;13.438;2023-03-26T03:46:15;99809.27;;;7.74;75.28
38452;BME280;24231;52.514;13.438;2023-03-26T03:48:42;99817.31;;;7.96;73.75
38452;BME280;24231;52.514;13.438;2023-03-26T03:51:09;99818.51;;;8.79;71.37
38452;BME280;24231;52.514;13.438;2023-03-26T03:53:37;99816.65;;;9.52;67.33
38452;BME280;24231;52.514;13.438;2023-03-26T03:56:13;99810.69;;;9.06;68.90
38452;BME280;24231;52.514;13.438;2023-03-26T03:58:40;99815.79;;;8.89;69.73
38452;BME280;24231;52.514;13.438;2023-03-26T04:01:08;99821.60;;;8.16;72.58
38452;BME280;24231;52.514;13.438;2023-03-26T04:03:35;99817.93;;;8.66;70.94
38452;BME280;24231;52.514;13.438;2023-03-26T04:06:03;99816.07;;;8.54;70.38
38452;BME280;24231;52.514;13.438;2023-03-26T04:08:31;99819.27;;;9.18;68.62
38452;BME280;24231;52.514;13.438;2023-03-26T04:11:03;99818.25;;;9.26;68.06
38452;BME280;24231;52.514;13.438;2023-03-26T04:13:30;99826.16;;;8.48;70.01
38452;BME280;24231;52.514;13.438;2023-03-26T04:15:58;99826.08;;;8.91;68.41
38452;BME280;24231;52.514;13.438;2023-03-26T04:18:25;99835.19;;;8.66;69.60
38452;BME280;24231;52.514;13.438;2023-03-26T04:20:53;99831.48;;;8.82;68.72
38452;BME280;24231;52.514;13.438;2023-03-26T04:23:20;99825.18;;;8.85;68.54
38452;BME280;24231;52.514;13.438;2023-03-26T04:25:49;99828.50;;;8.88;68.19
38452;BME280;24231;52.514;13.438;2023-03-26T04:28:25;99827.24;;;8.89;68.00
38452;BME280;24231;52.514;13.438;2023-03-26T04:30:54;99832.73;;;8.49;70.43
38452;BME280;24231;52.514;13.438;2023-03-26T04:33:22;99826.92;;;8.19;71.44
38452;BME280;24231;52.514;13.438;2023-03-26T04:35:50;99828.28;;;9.13;68.79
38452;BME280;24231;52.514;13.438;2023-03-26T04:38:17;99829.71;;;9.14;67.85
38452;BME280;24231;52.514;13.438;2023-03-26T04:40:44;99826.77;;;8.99;68.23
38452;BME280;24231;52.514;13.438;2023-03-26T04:43:13;99826.69;;;9.29;67.28
38452;BME280;24231;52.514;13.438;2023-03-26T04:45:40;99833.07;;;8.33;71.63
38452;BME280;24231;52.514;13.438;2023-03-26T04:48:07;99830.88;;;9.14;68.42
38452;BME280;24231;52.514;13.438;2023-03-26T04:50:35;99832.83;;;9.10;68.55
38452;BME280;24231;52.514;13.438;2023-03-26T04:53:02;99828.51;;;9.03;68.62
38452;BME280;24231;52.514;13.438;2023-03-26T04:55:33;99835.59;;;7.81;73.16
38452;BME280;24231;52.514;13.438;2023-03-26T04:58:02;99831.18;;;8.38;72.51
38452;BME280;24231;52.514;13.438;2023-03-26T05:00:30;99832.22;;;8.80;69.90
38452;BME280;24231;52.514;13.438;2023-03-26T05:02:58;99830.31;;;8.85;69.11
38452;BME280;24231;52.514;13.438;2023-03-26T05:05:26;99834.77;;;8.72;68.44
38452;BME280;24231;52.514;13.438;2023-03-26T05:07:54;99835.11;;;8.61;68.97
38452;BME280;24231;52.514;13.438;2023-03-26T05:10:21;99833.17;;;9.54;65.33
38452;BME280;24231;52.514;13.438;2023-03-26T05:12:48;99838.23;;;10.30;61.96
38452;BME280;24231;52.514;13.438;2023-03-26T05:15:16;99832.95;;;9.87;63.39
38452;BME280;24231;52.514;13.438;2023-03-26T05:17:43;99835.33;;;9.12;66.15
38452;BME280;24231;52.514;13.438;2023-03-26T05:20:16;99835.15;;;10.12;62.66
38452;BME280;24231;52.514;13.438;2023-03-26T05:22:43;99837.28;;;9.84;64.56
38452;BME280;24231;52.514;13.438;2023-03-26T05:25:12;99838.60;;;10.03;63.91
38452;BME280;24231;52.514;13.438;2023-03-26T05:27:39;99835.89;;;8.69;68.46
38452;BME280;24231;52.514;13.438;2023-03-26T05:30:07;99838.33;;;9.93;64.85
38452;BME280;24231;52.514;13.438;2023-03-26T05:32:35;99837.50;;;10.21;63.83
38452;BME280;24231;52.514;13.438;2023-03-26T05:35:03;99837.74;;;10.36;62.63
38452;BME280;24231;52.514;13.438;2023-03-26T05:37:30;99834.07;;;9.55;65.29
38452;BME280;24231;52.514;13.438;2023-03-26T05:39:57;99837.72;;;9.53;66.02
38452;BME280;24231;52.514;13.438;2023-03-26T05:42:25;99843.28;;;9.05;67.19
38452;BME280;24231;52.514;13.438;2023-03-26T05:44:52;99845.92;;;8.85;67.10
38452;BME280;24231;52.514;13.438;2023-03-26T05:47:19;99837.88;;;9.24;66.64
38452;BME280;24231;52.514;13.438;2023-03-26T05:49:47;99841.66;;;9.82;64.06
38452;BME280;24231;52.514;13.438;2023-03-26T05:52:14;99839.83;;;9.73;64.85
38452;BME280;24231;52.514;13.438;2023-03-26T05:54:41;99842.90;;;9.01;67.34
38452;BME280;24231;52.514;13.438;2023-03-26T05:57:08;99846.21;;;10.03;63.36
38452;BME280;24231;52.514;13.438;2023-03-26T05:59:35;99843.20;;;9.40;64.43
38452;BME280;24231;52.514;13.438;2023-03-26T06:02:02;99840.97;;;9.28;66.28
38452;BME280;24231;52.514;13.438;2023-03-26T06:04:29;99848.36;;;8.93;66.65
38452;BME280;24231;52.514;13.438;2023-03-26T06:06:57;99840.71;;;8.90;68.88
38452;BME280;24231;52.514;13.438;2023-03-26T06:09:24;99848.22;;;8.71;69.07
38452;BME280;24231;52.514;13.438;2023-03-26T06:11:51;99844.24;;;9.11;67.54
38452;BME280;24231;52.514;13.438;2023-03-26T06:14:19;99842.33;;;8.71;68.64
38452;BME280;24231;52.514;13.438;2023-03-26T06:16:46;99852.40;;;8.33;70.19
38452;BME280;24231;52.514;13.438;2023-03-26T06:19:13;99853.12;;;9.00;67.24
38452;BME280;24231;52.514;13.438;2023-03-26T06:21:41;99856.11;;;8.57;70.22
38452;BME280;24231;52.514;13.438;2023-03-26T06:24:08;99854.15;;;8.52;69.75
38452;BME280;24231;52.514;13.438;2023-03-26T06:26:35;99852.25;;;9.04;67.61
38452;BME280;24231;52.514;13.438;2023-03-26T06:29:03;99856.79;;;9.06;66.65
38452;BME280;24231;52.514;13.438;2023-03-26T06:31:30;99859.68;;;9.89;63.33
38452;BME280;24231;52.514;13.438;2023-03-26T06:33:58;99857.72;;;9.67;63.97
38452;BME280;24231;52.514;13.438;2023-03-26T06:36:25;99856.07;;;9.14;64.53
38452;BME280;24231;52.514;13.438;2023-03-26T06:38:52;99863.76;;;9.36;64.25
38452;BME280;24231;52.514;13.438;2023-03-26T06:41:19;99865.11;;;9.92;62.24
38452;BME280;24231;52.514;13.438;2023-03-26T06:43:47;99868.54;;;9.24;64.23
38452;BME280;24231;52.514;13.438;2023-03-26T06:46:14;99869.35;;;9.85;63.53
38452;BME280;24231;52.514;13.438;2023-03-26T06:48:41;99869.70;;;9.79;63.72
38452;BME280;24231;52.514;13.438;2023-03-26T06:51:09;99867.86;;;9.58;63.61
38452;BME280;24231;52.514;13.438;2023-03-26T06:53:36;99865.53;;;9.56;63.90
38452;BME280;24231;52.514;13.438;2023-03-26T06:56:04;99871.76;;;9.06;65.78
38452;BME280;24231;52.514;13.438;2023-03-26T06:58:31;99861.57;;;9.58;63.97
38452;BME280;24231;52.514;13.438;2023-03-26T07:00:59;99873.92;;;7.97;69.83
38452;BME280;24231;52.514;13.438;2023-03-26T07:03:26;99872.74;;;8.72;66.19
38452;BME280;24231;52.514;13.438;2023-03-26T07:05:53;99866.92;;;9.32;63.92
38452;BME280;24231;52.514;13.438;2023-03-26T07:08:21;99870.93;;;10.52;59.54
38452;BME280;24231;52.514;13.438;2023-03-26T07:10:48;99865.48;;;10.68;57.85
38452;BME280;24231;52.514;13.438;2023-03-26T07:13:15;99864.83;;;11.04;56.01
38452;BME280;24231;52.514;13.438;2023-03-26T07:15:42;99858.91;;;11.35;54.19
38452;BME280;24231;52.514;13.438;2023-03-26T07:18:09;99860.84;;;11.21;56.53
38452;BME280;24231;52.514;13.438;2023-03-26T07:20:37;99857.57;;;11.67;54.98
38452;BME280;24231;52.514;13.438;2023-03-26T07:23:05;99857.76;;;11.92;53.93
38452;BME280;24231;52.514;13.438;2023-03-26T07:25:32;99863.22;;;10.34;57.90
38452;BME280;24231;52.514;13.438;2023-03-26T07:28:07;99859.51;;;11.06;55.87
38452;BME280;24231;52.514;13.438;2023-03-26T07:30:45;99853.77;;;11.33;56.18
38452;BME280;24231;52.514;13.438;2023-03-26T07:33:20;99860.12;;;12.01;53.64
38452;BME280;24231;52.514;13.438;2023-03-26T07:35:57;99857.17;;;11.05;54.96
38452;BME280;24231;52.514;13.438;2023-03-26T07:38:39;99864.96;;;9.96;58.12
38452;BME280;24231;52.514;13.438;2023-03-26T07:41:15;99859.17;;;11.56;54.22
38452;BME280;24231;52.514;13.438;2023-03-26T07:43:56;99873.17;;;10.73;56.98
38452;BME280;24231;52.514;13.438;2023-03-26T07:46:28;99861.33;;;11.70;53.98
38452;BME280;24231;52.514;13.438;2023-03-26T07:48:56;99866.60;;;11.07;55.25
38452;BME280;24231;52.514;13.438;2023-03-26T07:51:24;99872.15;;;11.41;54.43
38452;BME280;24231;52.514;13.438;2023-03-26T07:53:52;99868.70;;;11.27;54.37
38452;BME280;24231;52.514;13.438;2023-03-26T07:56:22;99872.69;;;10.61;55.81
38452;BME280;24231;52.514;13.438;2023-03-26T07:59:00;99870.03;;;10.99;54.76
38452;BME280;24231;52.514;13.438;2023-03-26T08:01:42;99864.44;;;11.62;52.16
38452;BME280;24231;52.514;13.438;2023-03-26T08:04:24;99869.10;;;10.49;54.89
38452;BME280;24231;52.514;13.438;2023-03-26T08:07:02;99870.22;;;9.98;55.92
38452;BME280;24231;52.514;13.438;2023-03-26T08:09:37;99868.11;;;11.11;53.39
38452;BME280;24231;52.514;13.438;2023-03-26T08:12:11;99859.35;;;11.59;52.12
38452;BME280;24231;52.514;13.438;2023-03-26T08:14:48;99863.09;;;10.98;53.67
38452;BME280;24231;52.514;13.438;2023-03-26T08:17:25;99863.05;;;8.91;60.47
38452;BME280;24231;52.514;13.438;2023-03-26T08:20:03;99864.94;;;9.58;59.91
38452;BME280;24231;52.514;13.438;2023-03-26T08:22:33;99863.73;;;10.14;58.67
38452;BME280;24231;52.514;13.438;2023-03-26T08:25:16;99864.65;;;9.78;60.49
38452;BME280;24231;52.514;13.438;2023-03-26T08:27:51;99863.40;;;9.97;58.60
38452;BME280;24231;52.514;13.438;2023-03-26T08:30:26;99864.03;;;9.09;60.61
38452;BME280;24231;52.514;13.438;2023-03-26T08:32:56;99862.90;;;10.79;56.63
38452;BME280;24231;52.514;13.438;2023-03-26T08:35:24;99858.49;;;11.25;54.44
38452;BME280;24231;52.514;13.438;2023-03-26T08:37:52;99865.28;;;10.24;57.18
38452;BME280;24231;52.514;13.438;2023-03-26T08:40:37;99857.54;;;11.21;54.28
38452;BME280;24231;52.514;13.438;2023-03-26T08:43:25;99859.32;;;11.90;51.57
38452;BME280;24231;52.514;13.438;2023-03-26T08:46:11;99858.99;;;11.10;53.74
38452;BME280;24231;52.514;13.438;2023-03-26T08:49:00;99852.81;;;11.12;54.14
38452;BME280;24231;52.514;13.438;2023-03-26T08:51:54;99849.41;;;12.14;51.27
38452;BME280;24231;52.514;13.438;2023-03-26T08:54:46;99850.15;;;10.77;54.78
38452;BME280;24231;52.514;13.438;2023-03-26T08:57:27;99850.02;;;9.68;58.78
38452;BME280;24231;52.514;13.438;2023-03-26T09:00:15;99846.08;;;10.14;58.01
38452;BME280;24231;52.514;13.438;2023-03-26T09:03:12;99845.67;;;10.43;56.79
38452;BME280;24231;52.514;13.438;2023-03-26T09:06:04;99841.34;;;9.30;60.44
38452;BME280;24231;52.514;13.438;2023-03-26T09:09:25;99841.40;;;9.66;59.77
38452;BME280;24231;52.514;13.438;2023-03-26T09:12:15;99842.53;;;10.54;56.54
38452;BME280;24231;52.514;13.438;2023-03-26T09:16:01;99835.48;;;11.33;54.24
38452;BME280;24231;52.514;13.438;2023-03-26T09:19:20;99838.57;;;10.03;57.60
38452;BME280;24231;52.514;13.438;2023-03-26T09:22:16;99825.79;;;11.15;54.51
38452;BME280;24231;52.514;13.438;2023-03-26T09:27:12;99826.93;;;9.33;60.68
38452;BME280;24231;52.514;13.438;2023-03-26T09:30:01;99821.31;;;11.11;54.17
38452;BME280;24231;52.514;13.438;2023-03-26T09:34:06;99820.18;;;11.36;53.55
38452;BME280;24231;52.514;13.438;2023-03-26T09:36:52;99822.45;;;11.52;53.58
38452;BME280;24231;52.514;13.438;2023-03-26T09:39:33;99838.63;;;10.60;56.78
38452;BME280;24231;52.514;13.438;2023-03-26T09:42:08;99837.03;;;11.01;55.87
38452;BME280;24231;52.514;13.438;2023-03-26T09:45:40;99841.59;;;10.27;59.50
38452;BME280;24231;52.514;13.438;2023-03-26T09:48:22;99850.90;;;9.94;62.70
38452;BME280;24231;52.514;13.438;2023-03-26T09:50:59;99850.95;;;9.41;65.30
38452;BME280;24231;52.514;13.438;2023-03-26T09:53:50;99852.77;;;9.27;67.11
38452;BME280;24231;52.514;13.438;2023-03-26T09:56:30;99847.70;;;9.68;65.56
38452;BME280;24231;52.514;13.438;2023-03-26T09:59:34;99856.06;;;9.73;64.62
38452;BME280;24231;52.514;13.438;2023-03-26T10:02:16;99859.36;;;10.36;62.90
38452;BME280;24231;52.514;13.438;2023-03-26T10:07:04;99858.36;;;10.29;63.25
38452;BME280;24231;52.514;13.438;2023-03-26T10:09:45;99860.94;;;10.25;61.56
38452;BME280;24231;52.514;13.438;2023-03-26T10:12:23;99860.72;;;10.42;61.33
38452;BME280;24231;52.514;13.438;2023-03-26T10:15:01;99855.71;;;9.85;63.73
38452;BME280;24231;52.514;13.438;2023-03-26T10:17:39;99857.03;;;9.24;64.38
38452;BME280;24231;52.514;13.438;2023-03-26T10:20:26;99853.86;;;10.33;61.20
38452;BME280;24231;52.514;13.438;2023-03-26T10:23:07;99853.32;;;10.52;60.19
38452;BME280;24231;52.514;13.438;2023-03-26T10:25:51;99853.12;;;10.91;58.53
38452;BME280;24231;52.514;13.438;2023-03-26T10:28:38;99852.36;;;10.96;59.50
38452;BME280;24231;52.514;13.438;2023-03-26T10:31:26;99847.05;;;11.34;57.66
38452;BME280;24231;52.514;13.438;2023-03-26T10:34:06;99845.08;;;11.89;55.21
38452;BME280;24231;52.514;13.438;2023-03-26T10:36:36;99851.06;;;10.88;59.00
38452;BME280;24231;52.514;13.438;2023-03-26T10:39:21;99851.50;;;8.95;64.95
38452;BME280;24231;52.514;13.438;2023-03-26T10:42:02;99850.92;;;10.37;60.64
38452;BME280;24231;52.514;13.438;2023-03-26T10:44:47;99853.13;;;10.97;59.28
38452;BME280;24231;52.514;13.438;2023-03-26T10:47:40;99850.65;;;11.25;58.19
38452;BME280;24231;52.514;13.438;2023-03-26T10:50:25;99848.69;;;11.73;57.01
38452;BME280;24231;52.514;13.438;2023-03-26T10:52:59;99845.05;;;11.44;56.62
38452;BME280;24231;52.514;13.438;2023-03-26T10:55:33;99849.33;;;11.14;58.79
38452;BME280;24231;52.514;13.438;2023-03-26T10:58:09;99854.15;;;10.90;59.28
38452;BME280;24231;52.514;13.438;2023-03-26T11:00:43;99852.78;;;10.70;60.24
38452;BME280;24231;52.514;13.438;2023-03-26T11:03:27;99845.03;;;11.18;58.39
38452;BME280;24231;52.514;13.438;2023-03-26T11:06:08;99844.29;;;11.14;59.29
38452;BME280;24231;52.514;13.438;2023-03-26T11:08:45;99840.54;;;11.31;59.44
38452;BME280;24231;52.514;13.438;2023-03-26T11:11:23;99835.01;;;11.29;58.65
38452;BME280;24231;52.514;13.438;2023-03-26T11:14:02;99840.82;;;11.11;58.80
38452;BME280;24231;52.514;13.438;2023-03-26T11:16:47;99836.13;;;11.95;56.59
38452;BME280;24231;52.514;13.438;2023-03-26T11:19:24;99842.54;;;9.52;64.05
38452;BME280;24231;52.514;13.438;2023-03-26T11:22:00;99833.67;;;11.80;57.77
38452;BME280;24231;52.514;13.438;2023-03-26T11:24:55;99834.02;;;11.94;56.77
38452;BME280;24231;52.514;13.438;2023-03-26T11:27:34;99828.56;;;11.99;56.34
38452;BME280;24231;52.514;13.438;2023-03-26T11:30:18;99829.39;;;12.57;53.98
38452;BME280;24231;52.514;13.438;2023-03-26T11:32:50;99825.38;;;11.61;57.48
38452;BME280;24231;52.514;13.438;2023-03-26T11:35:22;99823.53;;;11.61;56.48
38452;BME280;24231;52.514;13.438;2023-03-26T11:37:53;99824.95;;;11.48;57.26
38452;BME280;24231;52.514;13.438;2023-03-26T11:40:26;99828.03;;;11.91;56.83
38452;BME280;24231;52.514;13.438;2023-03-26T11:42:59;99825.18;;;12.24;55.09
38452;BME280;24231;52.514;13.438;2023-03-26T11:45:30;99823.20;;;12.41;54.92
38452;BME280;24231;52.514;13.438;2023-03-26T11:48:03;99821.98;;;11.85;56.87
38452;BME280;24231;52.514;13.438;2023-03-26T11:50:35;99826.19;;;10.57;59.87
38452;BME280;24231;52.514;13.438;2023-03-26T11:53:11;99818.16;;;12.21;55.69
38452;BME280;24231;52.514;13.438;2023-03-26T11:55:40;99814.36;;;12.59;54.00
38452;BME280;24231;52.514;13.438;2023-03-26T11:58:21;99808.56;;;12.63;53.07
38452;BME280;24231;52.514;13.438;2023-03-26T12:00:52;99807.62;;;12.59;52.72
38452;BME280;24231;52.514;13.438;2023-03-26T12:03:20;99809.93;;;11.63;55.00
38452;BME280;24231;52.514;13.438;2023-03-26T12:05:49;99806.40;;;11.92;55.10
38452;BME280;24231;52.514;13.438;2023-03-26T12:08:18;99803.57;;;12.24;54.01
38452;BME280;24231;52.514;13.438;2023-03-26T12:10:57;99797.59;;;13.02;51.61
38452;BME280;24231;52.514;13.438;2023-03-26T12:13:31;99796.17;;;12.48;52.79
38452;BME280;24231;52.514;13.438;2023-03-26T12:16:06;99789.80;;;12.73;51.67
38452;BME280;24231;52.514;13.438;2023-03-26T12:18:36;99783.04;;;12.88;51.09
38452;BME280;24231;52.514;13.438;2023-03-26T12:21:06;99776.38;;;13.12;50.39
38452;BME280;24231;52.514;13.438;2023-03-26T12:23:36;99778.07;;;12.08;53.45
38452;BME280;24231;52.514;13.438;2023-03-26T12:26:13;99773.77;;;12.26;52.31
38452;BME280;24231;52.514;13.438;2023-03-26T12:28:44;99767.64;;;12.52;51.92
38452;BME280;24231;52.514;13.438;2023-03-26T12:31:11;99764.51;;;12.29;52.63
38452;BME280;24231;52.514;13.438;2023-03-26T12:33:38;99763.54;;;12.90;51.17
38452;BME280;24231;52.514;13.438;2023-03-26T12:36:18;99763.11;;;13.17;49.52
38452;BME280;24231;52.514;13.438;2023-03-26T12:38:46;99761.08;;;13.23;49.34
38452;BME280;24231;52.514;13.438;2023-03-26T12:41:15;99759.14;;;13.46;49.48
38452;BME280;24231;52.514;13.438;2023-03-26T12:43:44;99753.92;;;13.80;47.55
38452;BME280;24231;52.514;13.438;2023-03-26T12:46:22;99755.29;;;13.10;49.05
38452;BME280;24231;52.514;13.438;2023-03-26T12:48:50;99756.90;;;13.32;48.17
38452;BME280;24231;52.514;13.438;2023-03-26T12:51:26;99754.02;;;12.94;49.47
38452;BME280;24231;52.514;13.438;2023-03-26T12:54:10;99755.80;;;13.13;48.37
38452;BME280;24231;52.514;13.438;2023-03-26T12:56:45;99755.54;;;12.53;48.95
38452;BME280;24231;52.514;13.438;2023-03-26T12:59:25;99759.88;;;13.87;46.66
38452;BME280;24231;52.514;13.438;2023-03-26T13:02:04;99756.10;;;14.06;46.30
38452;BME280;24231;52.514;13.438;2023-03-26T13:04:52;99760.48;;;13.73;46.13
38452;BME280;24231;52.514;13.438;2023-03-26T13:07:32;99759.79;;;13.07;46.49
38452;BME280;24231;52.514;13.438;2023-03-26T13:10:41;99757.19;;;11.91;49.22
38452;BME280;24231;52.514;13.438;2023-03-26T13:13:27;99745.87;;;13.11;46.56
38452;BME280;24231;52.514;13.438;2023-03-26T13:16:03;99740.69;;;13.43;45.50
38452;BME280;24231;52.514;13.438;2023-03-26T13:18:46;99743.82;;;12.58;48.16
38452;BME280;24231;52.514;13.438;2023-03-26T13:21:21;99748.09;;;13.46;45.79
38452;BME280;24231;52.514;13.438;2023-03-26T13:23:57;99747.61;;;13.27;46.19
38452;BME280;24231;52.514;13.438;2023-03-26T13:26:40;99740.36;;;12.61;46.65
38452;BME280;24231;52.514;13.438;2023-03-26T13:29:17;99739.56;;;13.39;45.38
38452;BME280;24231;52.514;13.438;2023-03-26T13:31:52;99739.73;;;13.24;44.64
38452;BME280;24231;52.514;13.438;2023-03-26T13:34:26;99737.37;;;12.01;47.67
38452;BME280;24231;52.514;13.438;2023-03-26T13:37:07;99734.90;;;13.82;44.25
38452;BME280;24231;52.514;13.438;2023-03-26T13:39:47;99730.52;;;12.88;45.68
38452;BME280;24231;52.514;13.438;2023-03-26T13:42:28;99738.55;;;11.98;45.84